createdAt,value
2023-05-21T00:00:36.977Z,69.38
2023-05-21T00:03:46.506Z,70.02
2023-05-21T00:06:15.691Z,69.82
2023-05-21T00:09:23.826Z,70.92
2023-05-21T00:12:32.269Z,70.64
2023-05-21T00:15:15.852Z,71.84
2023-05-21T00:18:13.140Z,71.27
2023-05-21T00:21:42.188Z,72.00
2023-05-21T00:24:31.701Z,72.09
2023-05-21T00:27:43.444Z,72.36
2023-05-21T00:30:51.351Z,72.72
2023-05-21T00:34:19.606Z,73.04
2023-05-21T00:37:47.392Z,72.54
2023-05-21T00:41:16.355Z,72.90
2023-05-21T00:44:33.313Z,73.46
2023-05-21T00:47:38.068Z,74.03
2023-05-21T00:50:46.074Z,74.26
2023-05-21T00:53:14.297Z,74.86
2023-05-21T00:56:23.173Z,73.40
2023-05-21T00:59:33.448Z,74.22
2023-05-21T01:02:41.725Z,76.16
2023-05-21T01:05:26.117Z,75.70
2023-05-21T01:08:42.414Z,75.28
2023-05-21T01:11:30.587Z,75.82
2023-05-21T01:14:39.722Z,75.58
2023-05-21T01:17:36.646Z,76.87
2023-05-21T01:21:04.744Z,77.00
2023-05-21T01:24:13.217Z,77.72
2023-05-21T01:27:18.579Z,75.32
2023-05-21T01:30:10.409Z,76.87
2023-05-21T01:33:19.424Z,76.97
2023-05-21T01:36:07.596Z,77.39
2023-05-21T01:39:03.985Z,77.02
2023-05-21T01:42:07.998Z,76.26
2023-05-21T01:45:04.416Z,76.05
2023-05-21T01:48:01.025Z,76.25
2023-05-21T01:50:49.779Z,76.02
2023-05-21T01:54:17.846Z,75.85
2023-05-21T01:57:26.288Z,76.85
2023-05-21T02:00:50.979Z,77.31
2023-05-21T02:03:43.319Z,77.33
2023-05-21T02:07:11.628Z,77.78
2023-05-21T02:10:39.387Z,77.57
2023-05-21T02:14:08.799Z,78.00
2023-05-21T02:17:21.045Z,77.86
2023-05-21T02:20:16.958Z,78.53
2023-05-21T02:23:25.144Z,78.11
2023-05-21T02:25:55.520Z,76.84
2023-05-21T02:29:11.528Z,77.82
2023-05-21T02:32:04.164Z,78.68
2023-05-21T02:35:14.495Z,80.54
2023-05-21T02:38:24.251Z,79.95
2023-05-21T02:41:35.809Z,80.54
2023-05-21T02:44:44.225Z,80.89
2023-05-21T02:48:12.400Z,81.45
2023-05-21T02:51:36.240Z,79.85
2023-05-21T02:55:04.072Z,80.43
2023-05-21T02:57:56.304Z,80.37
2023-05-21T03:01:19.300Z,81.02
2023-05-21T03:04:24.801Z,81.50
2023-05-21T03:07:33.919Z,80.71
2023-05-21T03:10:42.414Z,80.35
2023-05-21T03:14:05.724Z,80.80
2023-05-21T03:16:42.758Z,81.86
2023-05-21T03:19:51.298Z,81.38
2023-05-21T03:23:19.207Z,81.30
2023-05-21T03:26:47.190Z,81.58
2023-05-21T03:29:42.788Z,81.13
2023-05-21T03:32:51.446Z,81.80
2023-05-21T03:35:21.352Z,82.61
2023-05-21T03:38:49.139Z,82.15
2023-05-21T03:41:58.814Z,83.04
2023-05-21T03:45:07.193Z,82.73
2023-05-21T03:48:01.553Z,83.58
2023-05-21T03:51:25.423Z,83.01
2023-05-21T03:54:41.279Z,82.90
2023-05-21T03:57:34.328Z,82.61
2023-05-21T04:00:26.235Z,83.20
2023-05-21T04:03:50.562Z,83.02
2023-05-21T04:06:58.951Z,82.14
2023-05-21T04:09:51.185Z,82.20
2023-05-21T04:13:18.979Z,82.12
2023-05-21T04:16:09.255Z,81.76
2023-05-21T04:18:38.705Z,81.92
2023-05-21T04:21:28.710Z,81.78
2023-05-21T04:24:37.674Z,81.75
2023-05-21T04:28:05.859Z,81.62
2023-05-21T04:30:36.737Z,81.63
2023-05-21T04:33:53.290Z,81.23
2023-05-21T04:36:42.500Z,80.91
2023-05-21T04:39:40.646Z,80.16
2023-05-21T04:42:48.887Z,80.04
2023-05-21T04:45:38.456Z,79.66
2023-05-21T04:48:54.525Z,80.09
2023-05-21T04:52:22.281Z,80.13
2023-05-21T04:55:27.169Z,80.07
2023-05-21T04:58:16.199Z,79.45
2023-05-21T05:01:22.930Z,78.97
2023-05-21T05:04:38.743Z,79.41
2023-05-21T05:07:25.995Z,79.04
2023-05-21T05:10:35.916Z,78.38
2023-05-21T05:13:31.917Z,77.37
2023-05-21T05:16:40.279Z,77.20
2023-05-21T05:19:50.048Z,76.63
2023-05-21T05:22:59.302Z,76.11
2023-05-21T05:25:48.282Z,76.03
2023-05-21T05:28:39.257Z,75.23
2023-05-21T05:32:07.214Z,74.92
2023-05-21T05:35:15.978Z,74.29
2023-05-21T05:38:43.970Z,74.28
2023-05-21T05:41:52.787Z,73.98
2023-05-21T05:44:41.278Z,73.56
2023-05-21T05:47:31.756Z,72.15
2023-05-21T05:50:43.210Z,72.03
2023-05-21T05:54:11.173Z,71.96
2023-05-21T05:57:22.482Z,71.61
2023-05-21T06:00:10.608Z,70.81
2023-05-21T06:03:18.848Z,70.88
2023-05-21T06:06:03.964Z,70.82
2023-05-21T06:09:20.190Z,70.09
2023-05-21T06:12:19.644Z,70.28
2023-05-21T06:15:10.320Z,70.45
2023-05-21T06:18:38.506Z,70.51
2023-05-21T06:21:26.990Z,70.63
2023-05-21T06:24:36.800Z,70.02
2023-05-21T06:27:25.160Z,69.07
2023-05-21T06:30:27.518Z,68.84
2023-05-21T06:33:16.343Z,69.07
2023-05-21T06:36:05.136Z,69.73
2023-05-21T06:38:38.100Z,69.70
2023-05-21T06:41:46.266Z,69.48
2023-05-21T06:45:01.765Z,69.20
2023-05-21T06:47:53.650Z,68.88
2023-05-21T06:50:24.787Z,68.80
2023-05-21T06:53:20.488Z,69.05
2023-05-21T06:56:10.093Z,68.30
2023-05-21T06:58:50.657Z,67.60
2023-05-21T07:01:40.775Z,67.62
2023-05-21T07:04:09.934Z,66.68
2023-05-21T07:07:06.831Z,65.31
2023-05-21T07:10:32.572Z,65.77
2023-05-21T07:13:12.403Z,65.47
2023-05-21T07:16:00.795Z,64.91
2023-05-21T07:18:59.442Z,65.44
2023-05-21T07:22:09.209Z,64.83
2023-05-21T07:24:56.182Z,64.21
2023-05-21T07:28:06.816Z,64.48
2023-05-21T07:30:48.540Z,63.65
2023-05-21T07:33:56.652Z,63.26
2023-05-21T07:36:50.326Z,61.68
2023-05-21T07:39:59.937Z,62.01
2023-05-21T07:42:50.198Z,61.96
2023-05-21T07:45:45.460Z,60.96
2023-05-21T07:48:35.437Z,61.75
2023-05-21T07:51:15.652Z,61.72
2023-05-21T07:53:54.488Z,61.72
2023-05-21T07:56:33.558Z,62.22
2023-05-21T07:59:41.485Z,60.87
2023-05-21T08:02:40.295Z,59.67
2023-05-21T08:05:52.248Z,58.75
2023-05-21T08:08:23.255Z,57.92
2023-05-21T08:10:53.058Z,56.72
2023-05-21T08:14:16.300Z,57.52
2023-05-21T08:17:00.213Z,56.48
2023-05-21T08:19:31.049Z,56.73
2023-05-21T08:22:22.753Z,56.85
2023-05-21T08:24:59.596Z,56.17
2023-05-21T08:27:51.674Z,55.57
2023-05-21T08:30:23.275Z,56.80
2023-05-21T08:32:55.732Z,56.34
2023-05-21T08:35:48.244Z,56.75
2023-05-21T08:38:23.550Z,55.69
2023-05-21T08:41:14.882Z,55.50
2023-05-21T08:44:21.854Z,54.80
2023-05-21T08:46:53.180Z,55.23
2023-05-21T08:50:00.883Z,54.32
2023-05-21T08:52:52.931Z,53.03
2023-05-21T08:55:25.772Z,53.17
2023-05-21T08:58:15.535Z,53.10
2023-05-21T09:00:44.817Z,52.04
2023-05-21T09:03:31.912Z,51.72
2023-05-21T09:06:24.693Z,52.28
2023-05-21T09:08:57.692Z,51.55
2023-05-21T09:11:49.875Z,50.66
2023-05-21T09:14:18.637Z,48.84
2023-05-21T09:17:06.961Z,49.55
2023-05-21T09:19:36.081Z,49.83
2023-05-21T09:22:39.180Z,48.97
2023-05-21T09:25:17.542Z,49.68
2023-05-21T09:28:05.916Z,48.46
2023-05-21T09:30:54.621Z,47.71
2023-05-21T09:33:43.282Z,47.51
2023-05-21T09:36:32.419Z,48.35
2023-05-21T09:39:15.697Z,48.03
2023-05-21T09:42:04.654Z,47.46
2023-05-21T09:44:49.143Z,46.80
2023-05-21T09:47:37.453Z,47.56
2023-05-21T09:50:06.572Z,46.92
2023-05-21T09:52:55.327Z,43.60
2023-05-21T09:55:44.413Z,45.16
2023-05-21T09:58:33.403Z,43.36
2023-05-21T10:01:21.310Z,43.96
2023-05-21T10:04:29.076Z,43.50
2023-05-21T10:07:03.116Z,42.65
2023-05-21T10:09:53.448Z,44.21
2023-05-21T10:12:39.756Z,43.70
2023-05-21T10:15:43.309Z,42.05
2023-05-21T10:18:16.532Z,39.36
2023-05-21T10:20:52.480Z,38.48
2023-05-21T10:23:22.997Z,40.02
2023-05-21T10:25:52.210Z,40.16
2023-05-21T10:28:21.802Z,41.50
2023-05-21T10:30:55.431Z,41.33
2023-05-21T10:33:25.523Z,42.08
2023-05-21T10:35:54.111Z,42.08
2023-05-21T10:38:44.381Z,41.26
2023-05-21T10:41:29.973Z,40.71
2023-05-21T10:44:13.993Z,41.58
2023-05-21T10:47:03.769Z,40.58
2023-05-21T10:49:40.613Z,39.67
2023-05-21T10:52:11.832Z,39.10
2023-05-21T10:55:04.564Z,39.23
2023-05-21T10:57:33.938Z,38.47
2023-05-21T11:00:07.105Z,37.31
2023-05-21T11:02:42.916Z,38.23
2023-05-21T11:05:14.045Z,37.74
2023-05-21T11:07:52.565Z,38.70
2023-05-21T11:10:24.715Z,38.23
2023-05-21T11:12:54.796Z,38.06
2023-05-21T11:15:51.124Z,34.64
2023-05-21T11:18:19.381Z,36.53
2023-05-21T11:20:49.165Z,36.12
2023-05-21T11:23:17.637Z,36.74
2023-05-21T11:25:56.560Z,37.84
2023-05-21T11:28:29.656Z,37.05
2023-05-21T11:31:29.188Z,37.38
2023-05-21T11:33:59.185Z,37.11
2023-05-21T11:36:27.784Z,37.97
2023-05-21T11:38:56.835Z,38.46
2023-05-21T11:41:25.425Z,37.99
2023-05-21T11:44:01.796Z,37.84
2023-05-21T11:46:31.572Z,37.01
2023-05-21T11:49:00.918Z,37.36
2023-05-21T11:51:30.084Z,37.82
2023-05-21T11:54:00.908Z,38.00
2023-05-21T11:56:44.299Z,37.71
2023-05-21T11:59:18.640Z,38.24
2023-05-21T12:01:51.416Z,38.20
2023-05-21T12:04:35.289Z,36.57
2023-05-21T12:07:05.382Z,35.27
2023-05-21T12:09:35.454Z,33.72
2023-05-21T12:12:04.895Z,32.91
2023-05-21T12:14:37.360Z,32.01
2023-05-21T12:17:25.157Z,32.09
2023-05-21T12:19:56.920Z,30.97
2023-05-21T12:22:25.652Z,29.88
2023-05-21T12:24:54.770Z,29.54
2023-05-21T12:27:24.450Z,30.16
2023-05-21T12:29:54.695Z,29.16
2023-05-21T12:32:23.326Z,29.40
2023-05-21T12:35:12.211Z,29.37
2023-05-21T12:37:45.690Z,29.10
2023-05-21T12:40:18.286Z,28.66
2023-05-21T12:42:47.425Z,29.28
2023-05-21T12:45:17.112Z,28.27
2023-05-21T12:47:47.293Z,28.82
2023-05-21T12:50:15.716Z,27.06
2023-05-21T12:52:44.030Z,26.77
2023-05-21T12:55:14.025Z,26.74
2023-05-21T12:57:42.792Z,26.16
2023-05-21T13:00:10.794Z,26.55
2023-05-21T13:02:40.095Z,27.58
2023-05-21T13:05:12.340Z,27.72
2023-05-21T13:07:41.474Z,29.35
2023-05-21T13:10:13.803Z,29.30
2023-05-21T13:12:49.744Z,29.51
2023-05-21T13:15:19.690Z,30.45
2023-05-21T13:18:08.242Z,30.01
2023-05-21T13:20:59.045Z,30.45
2023-05-21T13:23:27.295Z,30.15
2023-05-21T13:26:00.164Z,30.24
2023-05-21T13:28:42.905Z,30.42
2023-05-21T13:31:14.093Z,30.45
2023-05-21T13:34:05.503Z,29.80
2023-05-21T13:36:34.745Z,29.90
2023-05-21T13:39:03.945Z,30.29
2023-05-21T13:41:34.892Z,30.94
2023-05-21T13:44:04.620Z,31.23
2023-05-21T13:46:35.074Z,31.88
2023-05-21T13:49:04.339Z,33.67
2023-05-21T13:51:38.572Z,36.39
2023-05-21T13:54:08.408Z,38.26
2023-05-21T13:56:37.164Z,39.27
2023-05-21T13:59:14.100Z,40.88
2023-05-21T14:01:44.415Z,42.42
2023-05-21T14:04:12.605Z,43.09
2023-05-21T14:06:49.546Z,44.16
2023-05-21T14:09:20.177Z,45.61
2023-05-21T14:12:17.473Z,46.62
2023-05-21T14:14:48.103Z,46.60
2023-05-21T14:17:16.919Z,46.45
2023-05-21T14:19:55.329Z,46.33
2023-05-21T14:22:24.342Z,48.82
2023-05-21T14:25:00.631Z,50.95
2023-05-21T14:27:30.716Z,53.30
2023-05-21T14:30:03.815Z,55.22
2023-05-21T14:32:48.283Z,57.25
2023-05-21T14:35:20.753Z,57.51
2023-05-21T14:38:09.428Z,57.57
2023-05-21T14:40:38.816Z,58.03
2023-05-21T14:43:09.891Z,59.79
2023-05-21T14:46:21.895Z,58.55
2023-05-21T14:49:10.989Z,55.47
2023-05-21T14:52:00.596Z,53.35
2023-05-21T14:54:29.812Z,51.99
2023-05-21T14:57:09.897Z,53.27
2023-05-21T14:59:43.703Z,53.46
2023-05-21T15:02:35.897Z,53.24
2023-05-21T15:05:05.215Z,54.74
2023-05-21T15:07:54.840Z,53.38
2023-05-21T15:10:31.577Z,54.43
2023-05-21T15:13:21.373Z,53.88
2023-05-21T15:15:55.634Z,53.49
2023-05-21T15:18:43.987Z,53.24
2023-05-21T15:21:17.421Z,54.61
2023-05-21T15:24:29.575Z,53.19
2023-05-21T15:26:58.171Z,50.30
2023-05-21T15:29:27.382Z,45.92
2023-05-21T15:32:04.063Z,43.79
2023-05-21T15:34:33.435Z,42.09
2023-05-21T15:37:08.437Z,39.94
2023-05-21T15:39:36.901Z,38.95
2023-05-21T15:42:06.337Z,36.46
2023-05-21T15:44:36.164Z,35.57
2023-05-21T15:47:09.641Z,34.81
2023-05-21T15:49:46.709Z,33.15
2023-05-21T15:52:15.313Z,31.61
2023-05-21T15:54:44.324Z,31.18
2023-05-21T15:57:20.760Z,31.25
2023-05-21T15:59:48.627Z,31.19
2023-05-21T16:02:33.030Z,31.13
2023-05-21T16:05:06.218Z,31.85
2023-05-21T16:07:37.074Z,33.30
2023-05-21T16:10:06.389Z,34.95
2023-05-21T16:12:38.498Z,35.36
2023-05-21T16:15:10.211Z,36.26
2023-05-21T16:17:43.863Z,41.19
2023-05-21T16:20:12.660Z,43.08
2023-05-21T16:22:44.997Z,45.64
2023-05-21T16:25:15.020Z,47.26
2023-05-21T16:27:44.612Z,48.65
2023-05-21T16:31:08.636Z,49.86
2023-05-21T16:33:46.555Z,51.20
2023-05-21T16:36:32.400Z,51.88
2023-05-21T16:39:19.014Z,50.48
2023-05-21T16:41:49.443Z,51.26
2023-05-21T16:44:45.804Z,52.77
2023-05-21T16:48:00.292Z,54.72
2023-05-21T16:50:38.054Z,57.04
2023-05-21T16:53:08.205Z,55.60
2023-05-21T16:55:42.904Z,55.25
2023-05-21T16:58:14.622Z,56.16
2023-05-21T17:01:19.387Z,54.61
2023-05-21T17:04:11.217Z,54.21
2023-05-21T17:06:41.203Z,54.58
2023-05-21T17:09:14.152Z,55.23
2023-05-21T17:11:43.466Z,55.87
2023-05-21T17:17:01.909Z,57.35
2023-05-21T17:19:34.812Z,58.25
2023-05-21T17:22:05.124Z,58.55
2023-05-21T17:24:44.558Z,61.43
2023-05-21T17:27:52.618Z,66.70
2023-05-21T17:30:58.848Z,68.00
2023-05-21T17:33:34.528Z,70.22
2023-05-21T17:36:26.593Z,71.79
2023-05-21T17:39:02.049Z,73.77
2023-05-21T17:41:45.876Z,73.84
2023-05-21T17:44:16.810Z,75.53
2023-05-21T17:46:55.137Z,76.89
2023-05-21T17:50:02.526Z,81.55
2023-05-21T17:52:35.614Z,81.23
2023-05-21T17:55:24.115Z,81.27
2023-05-21T17:58:19.717Z,90.41
2023-05-21T18:01:48.528Z,94.13
2023-05-21T18:04:52.746Z,98.47
2023-05-21T18:07:40.701Z,100.00
2023-05-21T18:10:29.520Z,100.00
2023-05-21T18:12:58.698Z,100.00
2023-05-21T18:15:48.329Z,100.00
2023-05-21T18:18:53.197Z,100.00
2023-05-21T18:22:00.000Z,100.00
2023-05-21T18:24:57.319Z,100.00
2023-05-21T18:27:53.477Z,100.00
2023-05-21T18:31:01.855Z,100.00
2023-05-21T18:33:51.313Z,100.00
2023-05-21T18:36:43.918Z,100.00
2023-05-21T18:39:52.133Z,100.00
2023-05-21T18:42:48.626Z,100.00
2023-05-21T18:45:16.541Z,100.00
2023-05-21T18:48:33.119Z,100.00
2023-05-21T18:51:39.452Z,100.00
2023-05-21T18:54:09.900Z,100.00
2023-05-21T18:57:17.918Z,100.00
2023-05-21T18:59:54.324Z,100.00
2023-05-21T19:03:06.506Z,100.00
2023-05-21T19:06:15.604Z,100.00
2023-05-21T19:09:06.435Z,100.00
2023-05-21T19:11:45.386Z,100.00
2023-05-21T19:14:35.674Z,100.00
2023-05-21T19:17:51.544Z,100.00
2023-05-21T19:20:51.339Z,100.00
2023-05-21T19:23:52.469Z,100.00
2023-05-21T19:26:44.412Z,100.00
2023-05-21T19:29:40.615Z,100.00
2023-05-21T19:32:30.763Z,100.00
2023-05-21T19:35:19.444Z,100.00
2023-05-21T19:38:43.450Z,100.00
2023-05-21T19:41:32.272Z,100.00
2023-05-21T19:44:35.967Z,100.00
2023-05-21T19:47:30.550Z,100.00
2023-05-21T19:50:22.931Z,100.00
2023-05-21T19:53:30.109Z,100.00
2023-05-21T19:56:39.079Z,100.00
2023-05-21T19:59:27.743Z,100.00
2023-05-21T20:02:17.282Z,100.00
2023-05-21T20:05:46.171Z,100.00
2023-05-21T20:08:39.220Z,100.00
2023-05-21T20:11:08.966Z,100.00
2023-05-21T20:13:58.699Z,100.00
2023-05-21T20:16:49.408Z,100.00
2023-05-21T20:20:00.663Z,100.00
2023-05-21T20:22:48.748Z,100.00
2023-05-21T20:25:36.623Z,100.00
2023-05-21T20:28:33.644Z,100.00
2023-05-21T20:31:22.064Z,100.00
2023-05-21T20:34:11.068Z,100.00
2023-05-21T20:37:19.527Z,100.00
2023-05-21T20:40:00.581Z,100.00
2023-05-21T20:42:37.509Z,100.00
2023-05-21T20:45:27.156Z,100.00
2023-05-21T20:48:20.846Z,100.00
2023-05-21T20:51:10.852Z,100.00
2023-05-21T20:53:38.769Z,100.00
2023-05-21T20:56:40.790Z,100.00
2023-05-21T20:59:31.535Z,100.00
2023-05-21T21:02:20.598Z,99.99
2023-05-21T21:04:54.354Z,99.85
2023-05-21T21:08:02.283Z,99.95
2023-05-21T21:10:54.357Z,99.63
2023-05-21T21:14:22.639Z,99.49
2023-05-21T21:16:59.706Z,99.44
2023-05-21T21:20:09.550Z,99.25
2023-05-21T21:22:59.745Z,99.49
2023-05-21T21:25:52.003Z,100.00
2023-05-21T21:29:00.135Z,100.00
2023-05-21T21:32:07.838Z,100.00
2023-05-21T21:34:56.902Z,100.00
2023-05-21T21:38:13.504Z,100.00
2023-05-21T21:41:03.472Z,100.00
2023-05-21T21:44:16.573Z,100.00
2023-05-21T21:47:13.870Z,100.00
2023-05-21T21:50:23.193Z,100.00
2023-05-21T21:53:32.049Z,100.00
2023-05-21T21:56:40.084Z,100.00
2023-05-21T21:59:44.791Z,100.00
2023-05-21T22:02:52.719Z,100.00
2023-05-21T22:05:26.413Z,100.00
2023-05-21T22:08:03.169Z,100.00
2023-05-21T22:10:52.799Z,100.00
2023-05-21T22:13:43.228Z,100.00
2023-05-21T22:16:39.612Z,100.00
2023-05-21T22:19:28.900Z,100.00
2023-05-21T22:22:56.962Z,100.00
2023-05-21T22:26:06.889Z,100.00
2023-05-21T22:29:11.121Z,100.00
2023-05-21T22:32:19.152Z,100.00
2023-05-21T22:35:27.711Z,100.00
2023-05-21T22:38:55.645Z,100.00
2023-05-21T22:41:47.708Z,100.00
2023-05-21T22:45:03.113Z,100.00
2023-05-21T22:48:11.446Z,100.00
2023-05-21T22:50:42.475Z,100.00
2023-05-21T22:53:52.394Z,100.00
2023-05-21T22:56:46.136Z,100.00
2023-05-21T22:59:57.542Z,100.00
2023-05-21T23:03:05.567Z,100.00
2023-05-21T23:06:13.745Z,100.00
2023-05-21T23:09:03.271Z,100.00
2023-05-21T23:11:40.024Z,100.00
2023-05-21T23:14:28.416Z,100.00
2023-05-21T23:17:56.305Z,100.00
2023-05-21T23:21:21.073Z,100.00
2023-05-21T23:24:09.911Z,100.00
2023-05-21T23:27:19.152Z,100.00
2023-05-21T23:30:26.372Z,100.00
2023-05-21T23:33:49.598Z,100.00
2023-05-21T23:37:05.599Z,100.00
2023-05-21T23:40:09.958Z,100.00
2023-05-21T23:43:18.831Z,100.00
2023-05-21T23:46:43.152Z,100.00
2023-05-21T23:49:51.360Z,100.00
2023-05-21T23:53:19.288Z,100.00
2023-05-21T23:56:23.091Z,100.00
2023-05-21T23:59:51.227Z,100.00
